Nearby METAR Reports

 

KBJC - Broomfield/Jeffc, Colorado, USA
Distance from station: NNW 11mi, 17km
Updated: 11/21/2017 7:47am
Mostly cloudy
Mostly cloudy
 Wind from N
Wind: N 23 mph , 37 km/h, Gust: 35 mph , 56 km/h
Temperature: 45°F , 7°C
Wind Chill: 36°F , 2°C
Dew Point: 34°F , 1°C
Humidity: 66%
Barometer: 30.23 inHg , 1023.7 hPa
Clouds: Mostly cloudy
Visibility: 20 miles , 32 km
Cloud details: Partly cloudy 4500 ft
Mostly cloudy 7000 ft
Mostly cloudy 10000 ft
2017/11/21 14:47 KBJC 211447Z 01020G30KT 20SM SCT045 BKN070 BKN100 07/01 A3023
KBKF - Buckley Angb/Den, Colorado, USA
Distance from station: E 16mi, 25km
Updated: 11/21/2017 7:58am
Light rain, Mostly cloudy
Light rain, Mostly cloudy
 Wind from NNE
Wind: NNE 12 mph , 19 km/h
Temperature: 43°F , 6°C
Wind Chill: 37°F , 3°C
Dew Point: 36°F , 2°C
Humidity: 76%
Barometer: 30.23 inHg , 1023.7 hPa
Summary: Light rain
Clouds: Mostly cloudy
Visibility: 10 miles , 16 km
Cloud details: Partly cloudy 3000 ft
Mostly cloudy 6000 ft
Mostly cloudy 11000 ft
2017/11/21 14:58 KBKF 211458Z 03010KT 10SM -RA SCT030 BKN060 BKN110 06/02 A3023 RMK AO2A RAB58 PRESRR SLP208 P0000 60000 T00620023 52049
 
KAPA - Denver/Arapahoe, Colorado, USA
Distance from station: SE 16mi, 26km
Updated: 11/21/2017 7:53am
Mostly cloudy
Mostly cloudy
 Wind from NNE
Wind: NNE 14 mph , 22 km/h
Temperature: 45°F , 7°C
Wind Chill: 39°F , 4°C
Dew Point: 36°F , 2°C
Humidity: 71%
Barometer: 30.22 inHg , 1023.4 hPa
Clouds: Mostly cloudy
Visibility: 10 miles , 16 km
Cloud details: Mostly cloudy 5500 ft
Mostly cloudy 7000 ft
Mostly cloudy 9500 ft
2017/11/21 14:53 KAPA 211453Z 03012KT 10SM BKN055 BKN070 BKN095 07/02 A3022 RMK AO2 PK WND 03026/1421 SLP222 T00670017 53045
KEIK - Erie Muni, Colorado, USA
Distance from station: N 18mi, 29km
Updated: 11/21/2017 8:18am
Overcast
Overcast
 Wind from NNE
Wind: NNE 15 mph , 24 km/h, Gust: 21 mph , 33 km/h
Temperature: 45°F , 7°C
Wind Chill: 38°F , 3°C
Dew Point: 36°F , 2°C
Humidity: 71%
Barometer: 30.31 inHg , 1026.4 hPa
Clouds: Overcast
Visibility: 10 miles , 16 km
Cloud details: Mostly cloudy 5000 ft
Overcast 7500 ft
2017/11/21 15:18 KEIK 211518Z AUTO 02013G18KT 10SM BKN050 OVC075 07/02 A3031 RMK AO2 T00720016
 
KBDU - Boulder Muni, Colorado, USA
Distance from station: NNW 22mi, 35km
Updated: 11/21/2017 8:12am
Mostly cloudy
Mostly cloudy
 Wind from NNE
Wind: NNE 10 mph , 17 km/h, Gust: 16 mph , 26 km/h
Temperature: 43°F , 6°C
Wind Chill: 37°F , 3°C
Dew Point: 34°F , 1°C
Humidity: 71%
Barometer: 30.26 inHg , 1024.7 hPa
Clouds: Mostly cloudy
Visibility: 10 miles , 16 km
Cloud details: Mostly cloudy 4300 ft
Mostly cloudy 7500 ft
Mostly cloudy 11000 ft
2017/11/21 15:12 KBDU 211512Z AUTO 02009G14KT 10SM BKN043 BKN075 BKN110 06/01 A3026 RMK AO2
KDEN - Denver (dia), Colorado, USA
Distance from station: ENE 22mi, 35km
Updated: 11/21/2017 7:53am
Overcast
Overcast
 Wind from NNE
Wind: NNE 22 mph , 35 km/h, Gust: 26 mph , 43 km/h
Temperature: 43°F , 6°C
Wind Chill: 34°F , 1°C
Dew Point: 36°F , 2°C
Humidity: 76%
Barometer: 30.22 inHg , 1023.4 hPa
Clouds: Overcast
Visibility: 10 miles , 16 km
Cloud details: Mostly cloudy 3000 ft
Mostly cloudy 5500 ft
Overcast 9000 ft
2017/11/21 14:53 KDEN 211453Z 03019G23KT 10SM BKN030 BKN055 OVC090 06/02 A3022 RMK AO2 PK WND 02026/1355 RAE26 PRESRR SLP204 P0000 60002 T00610022 53050
 
KFTG - Denver F. Range, Colorado, USA
Distance from station: E 26mi, 42km
Updated: 11/21/2017 7:50am
Light drizzle, Mostly cloudy
Light drizzle, Mostly cloudy
 Wind from NNE
Wind: NNE 16 mph , 26 km/h, Gust: 26 mph , 43 km/h
Temperature: 45°F , 7°C
Wind Chill: 38°F , 3°C
Dew Point: 39°F , 4°C
Humidity: 81%
Barometer: 30.23 inHg , 1023.7 hPa
Summary: Light Drizzle
Clouds: Mostly cloudy
Visibility: 10 miles , 16 km
Cloud details: Mostly cloudy 3200 ft
Mostly cloudy 4000 ft
Mostly cloudy 5000 ft
2017/11/21 14:50 KFTG 211450Z 02014G23KT 10SM -DZ BKN032 BKN040 BKN050 07/04 A3023
KLMO - Longmont/Vbrand, Colorado, USA
Distance from station: NNW 29mi, 47km
Updated: 11/21/2017 8:15am
Overcast
Overcast
 Wind from N
Wind: N 18 mph , 30 km/h, Gust: 25 mph , 41 km/h
Temperature: 46°F , 8°C
Wind Chill: 39°F , 4°C
Dew Point: 37°F , 3°C
Humidity: 71%
Barometer: 30.25 inHg , 1024.4 hPa
Clouds: Overcast
Visibility: 10 miles , 16 km
Cloud details: Mostly cloudy 7500 ft
Overcast 9500 ft
2017/11/21 15:15 KLMO 211515Z AUTO 01016G22KT 10SM BKN075 OVC095 08/03 A3025 RMK AO2 T00820025
 
K0CO - Berthoud Pass, Colorado, USA
Distance from station: W 39mi, 62km
Updated: 11/21/2017 8:12am
Overcast
Overcast
 Wind from NNW
Wind: NNW 36 mph , 57 km/h, Gust: 51 mph , 81 km/h
Temperature: 21°F , -6°C
Wind Chill: 1°F , -17°C
Dew Point: 10°F , -12°C
Humidity: 63%
Barometer: 30.28 inHg , 1025.4 hPa
Clouds: Overcast
Cloud details: Overcast 100 ft
2017/11/21 15:12 K0CO 211512Z AUTO 33031G44KT OVC001 M06/M12 A3028 RMK AO2 PWINO
KMNH - Monument/Elbert, Colorado, USA
Distance from station: SSE 43mi, 68km
Updated: 11/21/2017 8:12am
Light rain, Overcast
Light rain, Overcast
 Wind from NNE
Wind: NNE 9 mph , 15 km/h
Temperature: 34°F , 1°C
Wind Chill: 27°F , -3°C
Dew Point: 34°F , 1°C
Humidity: 100%
Barometer: 30.27 inHg , 1025.1 hPa
Summary: Light rain
Clouds: Overcast
Visibility: 10 miles , 16 km
Cloud details: Partly cloudy 800 ft
Mostly cloudy 1300 ft
Overcast 1800 ft
2017/11/21 15:12 KMNH 211512Z AUTO 03008KT 10SM -RA SCT008 BKN013 OVC018 01/01 A3027 RMK AO2
 
KFNL - Ft Collins/Lovel, Colorado, USA
Distance from station: N 48mi, 78km
Updated: 11/21/2017 8:04am
Light rain, Overcast
Light rain, Overcast
 Wind from NE
Wind: NE 12 mph , 19 km/h
Temperature: 39°F , 4°C
Wind Chill: 32°F , 0°C
Dew Point: 36°F , 2°C
Humidity: 87%
Barometer: 30.26 inHg , 1024.7 hPa
Summary: Light rain
Clouds: Overcast
Visibility: 10 miles , 16 km
Cloud details: Few Clouds 2200 ft
Overcast 3200 ft
2017/11/21 15:04 KFNL 211504Z AUTO 05010KT 10SM -RA FEW022 OVC032 04/02 A3026 RMK AO2 WSHFT 1438 P0000